Apalachicola, Florida
Current Conditions -  °F | °C
As of 12:53 PM on Thursday 23 Oct 2014 (Local Time) from KAAF Reporting Station
Clear Clear  
Wind Chill: 74°   Ceiling: Unl
Heat Index: 74°   Visibility: 10mi
Dew Point: 45°   Wind: 9mph
Humidity: 35%   Direction: 70°ENE
Pressure: 30.06"   Gusts: 17mph
Location:  29.73°N, 84.99°W
Report Text: KAAF 231653Z AUTO 07008G15KT 10SM CLR 23/07 A3006 RMK AO2 SLP179 T02330072 TSNO
Loading
Personal Weather Stations






























Interactive Weather Map
Tropical Storm Tracking
New forecast layout! Learn more

10-Day Weather Forecast

Advertisements
Track Severe Weather on mobile